sensor_id;sensor_type;location;lat;lon;timestamp;pressure;altitude;pressure_sealevel;temperature
69186;BMP280;56298;49.246;9.410;2023-02-01T00:02:02;100041.78;;;4.73
69186;BMP280;56298;49.246;9.410;2023-02-01T00:04:28;100033.03;;;4.76
69186;BMP280;56298;49.246;9.410;2023-02-01T00:06:53;100032.53;;;4.74
69186;BMP280;56298;49.246;9.410;2023-02-01T00:09:18;100020.91;;;4.69
69186;BMP280;56298;49.246;9.410;2023-02-01T00:11:44;100033.09;;;4.71
69186;BMP280;56298;49.246;9.410;2023-02-01T00:14:09;100028.91;;;4.79
69186;BMP280;56298;49.246;9.410;2023-02-01T00:16:35;100021.06;;;4.77
69186;BMP280;56298;49.246;9.410;2023-02-01T00:19:03;100028.25;;;4.87
69186;BMP280;56298;49.246;9.410;2023-02-01T00:21:29;100017.09;;;4.89
69186;BMP280;56298;49.246;9.410;2023-02-01T00:23:55;100011.88;;;4.92
69186;BMP280;56298;49.246;9.410;2023-02-01T00:26:30;100020.19;;;4.82
69186;BMP280;56298;49.246;9.410;2023-02-01T00:28:55;100012.16;;;4.91
69186;BMP280;56298;49.246;9.410;2023-02-01T00:31:20;100021.34;;;4.95
69186;BMP280;56298;49.246;9.410;2023-02-01T00:33:49;100017.22;;;4.98
69186;BMP280;56298;49.246;9.410;2023-02-01T00:36:15;100013.72;;;4.97
69186;BMP280;56298;49.246;9.410;2023-02-01T00:38:41;100001.66;;;5.03
69186;BMP280;56298;49.246;9.410;2023-02-01T00:41:18;99992.25;;;4.96
69186;BMP280;56298;49.246;9.410;2023-02-01T00:43:44;100011.06;;;4.92
69186;BMP280;56298;49.246;9.410;2023-02-01T00:46:11;100002.38;;;4.90
69186;BMP280;56298;49.246;9.410;2023-02-01T00:48:36;100010.19;;;4.97
69186;BMP280;56298;49.246;9.410;2023-02-01T00:51:07;100007.97;;;4.99
69186;BMP280;56298;49.246;9.410;2023-02-01T00:53:34;100009.06;;;4.98
69186;BMP280;56298;49.246;9.410;2023-02-01T00:55:59;100001.53;;;4.95
69186;BMP280;56298;49.246;9.410;2023-02-01T00:58:25;99998.81;;;4.95
69186;BMP280;56298;49.246;9.410;2023-02-01T01:01:14;99991.25;;;5.05
69186;BMP280;56298;49.246;9.410;2023-02-01T01:03:43;99988.88;;;5.04
69186;BMP280;56298;49.246;9.410;2023-02-01T01:06:15;99999.03;;;5.12
69186;BMP280;56298;49.246;9.410;2023-02-01T01:08:41;99996.31;;;5.12
69186;BMP280;56298;49.246;9.410;2023-02-01T01:11:19;99998.00;;;5.08
69186;BMP280;56298;49.246;9.410;2023-02-01T01:13:49;99998.13;;;5.03
69186;BMP280;56298;49.246;9.410;2023-02-01T01:16:14;99999.41;;;5.05
69186;BMP280;56298;49.246;9.410;2023-02-01T01:18:40;100001.66;;;5.03
69186;BMP280;56298;49.246;9.410;2023-02-01T01:21:07;99993.59;;;5.12
69186;BMP280;56298;49.246;9.410;2023-02-01T01:23:32;100001.84;;;5.07
69186;BMP280;56298;49.246;9.410;2023-02-01T01:25:58;100012.06;;;4.96
69186;BMP280;56298;49.246;9.410;2023-02-01T01:28:23;100002.69;;;4.88
69186;BMP280;56298;49.246;9.410;2023-02-01T01:30:49;100000.25;;;4.87
69186;BMP280;56298;49.246;9.410;2023-02-01T01:33:14;100001.19;;;4.96
69186;BMP280;56298;49.246;9.410;2023-02-01T01:35:39;100003.13;;;4.96
69186;BMP280;56298;49.246;9.410;2023-02-01T01:38:05;100004.25;;;4.95
69186;BMP280;56298;49.246;9.410;2023-02-01T01:40:30;100004.53;;;4.93
69186;BMP280;56298;49.246;9.410;2023-02-01T01:42:56;100004.06;;;5.05
69186;BMP280;56298;49.246;9.410;2023-02-01T01:45:28;99990.47;;;5.05
69186;BMP280;56298;49.246;9.410;2023-02-01T01:48:21;99986.28;;;5.13
69186;BMP280;56298;49.246;9.410;2023-02-01T01:50:50;99983.25;;;5.14
69186;BMP280;56298;49.246;9.410;2023-02-01T01:53:20;99975.19;;;5.09
69186;BMP280;56298;49.246;9.410;2023-02-01T01:55:48;99970.31;;;5.06
69186;BMP280;56298;49.246;9.410;2023-02-01T01:58:19;99970.63;;;5.04
69186;BMP280;56298;49.246;9.410;2023-02-01T02:00:47;99978.47;;;5.06
69186;BMP280;56298;49.246;9.410;2023-02-01T02:03:45;99968.22;;;5.03
69186;BMP280;56298;49.246;9.410;2023-02-01T02:06:11;99972.47;;;5.09
69186;BMP280;56298;49.246;9.410;2023-02-01T02:08:39;99979.94;;;5.17
69186;BMP280;56298;49.246;9.410;2023-02-01T02:11:04;99968.50;;;5.01
69186;BMP280;56298;49.246;9.410;2023-02-01T02:13:33;99968.09;;;5.08
69186;BMP280;56298;49.246;9.410;2023-02-01T02:24:48;99958.34;;;5.07
69186;BMP280;56298;49.246;9.410;2023-02-01T02:30:10;99946.88;;;5.10
69186;BMP280;56298;49.246;9.410;2023-02-01T02:35:39;99935.00;;;5.06
69186;BMP280;56298;49.246;9.410;2023-02-01T02:43:49;99949.03;;;5.13
69186;BMP280;56298;49.246;9.410;2023-02-01T02:46:38;99935.44;;;5.13
69186;BMP280;56298;49.246;9.410;2023-02-01T02:49:43;99931.91;;;5.13
69186;BMP280;56298;49.246;9.410;2023-02-01T02:52:31;99926.84;;;5.06
69186;BMP280;56298;49.246;9.410;2023-02-01T02:55:17;99912.66;;;5.09
69186;BMP280;56298;49.246;9.410;2023-02-01T02:57:43;99916.25;;;5.04
69186;BMP280;56298;49.246;9.410;2023-02-01T03:00:31;99903.41;;;5.10
69186;BMP280;56298;49.246;9.410;2023-02-01T03:03:16;99905.28;;;5.10
69186;BMP280;56298;49.246;9.410;2023-02-01T03:06:00;99911.34;;;5.06
69186;BMP280;56298;49.246;9.410;2023-02-01T03:08:27;99900.47;;;5.06
69186;BMP280;56298;49.246;9.410;2023-02-01T03:11:03;99909.72;;;5.05
69186;BMP280;56298;49.246;9.410;2023-02-01T03:21:16;99918.59;;;5.11
69186;BMP280;56298;49.246;9.410;2023-02-01T03:23:45;99930.19;;;5.17
69186;BMP280;56298;49.246;9.410;2023-02-01T03:26:13;99948.00;;;5.23
69186;BMP280;56298;49.246;9.410;2023-02-01T03:28:43;99937.34;;;5.13
69186;BMP280;56298;49.246;9.410;2023-02-01T03:31:13;99939.47;;;5.16
69186;BMP280;56298;49.246;9.410;2023-02-01T03:33:39;99933.50;;;5.14
69186;BMP280;56298;49.246;9.410;2023-02-01T03:36:18;99922.91;;;5.12
69186;BMP280;56298;49.246;9.410;2023-02-01T03:38:50;99920.13;;;5.17
69186;BMP280;56298;49.246;9.410;2023-02-01T03:44:02;99911.75;;;5.14
69186;BMP280;56298;49.246;9.410;2023-02-01T03:46:35;99922.72;;;5.09
69186;BMP280;56298;49.246;9.410;2023-02-01T03:49:06;99917.47;;;5.12
69186;BMP280;56298;49.246;9.410;2023-02-01T03:51:32;99908.31;;;5.08
69186;BMP280;56298;49.246;9.410;2023-02-01T03:53:58;99905.50;;;4.99
69186;BMP280;56298;49.246;9.410;2023-02-01T03:56:25;99906.81;;;5.02
69186;BMP280;56298;49.246;9.410;2023-02-01T03:58:52;99900.88;;;5.00
69186;BMP280;56298;49.246;9.410;2023-02-01T04:01:25;99903.91;;;5.12
69186;BMP280;56298;49.246;9.410;2023-02-01T04:03:51;99915.69;;;5.07
69186;BMP280;56298;49.246;9.410;2023-02-01T04:06:16;99898.47;;;4.98
69186;BMP280;56298;49.246;9.410;2023-02-01T04:08:42;99912.44;;;5.05
69186;BMP280;56298;49.246;9.410;2023-02-01T04:11:07;99895.13;;;5.01
69186;BMP280;56298;49.246;9.410;2023-02-01T04:13:32;99927.44;;;5.03
69186;BMP280;56298;49.246;9.410;2023-02-01T04:15:57;99929.09;;;5.04
69186;BMP280;56298;49.246;9.410;2023-02-01T04:18:23;99929.25;;;5.07
69186;BMP280;56298;49.246;9.410;2023-02-01T04:20:48;99926.75;;;5.11
69186;BMP280;56298;49.246;9.410;2023-02-01T04:23:13;99914.69;;;5.17
69186;BMP280;56298;49.246;9.410;2023-02-01T04:25:40;99912.94;;;5.21
69186;BMP280;56298;49.246;9.410;2023-02-01T04:28:05;99901.69;;;5.14
69186;BMP280;56298;49.246;9.410;2023-02-01T04:30:32;99904.91;;;5.16
69186;BMP280;56298;49.246;9.410;2023-02-01T04:32:57;99911.16;;;5.03
69186;BMP280;56298;49.246;9.410;2023-02-01T04:35:22;99909.03;;;5.00
69186;BMP280;56298;49.246;9.410;2023-02-01T04:37:47;99913.94;;;4.98
69186;BMP280;56298;49.246;9.410;2023-02-01T04:40:13;99904.63;;;5.04
69186;BMP280;56298;49.246;9.410;2023-02-01T04:42:38;99900.56;;;5.01
69186;BMP280;56298;49.246;9.410;2023-02-01T04:45:04;99900.75;;;5.05
69186;BMP280;56298;49.246;9.410;2023-02-01T04:47:29;99890.22;;;5.03
69186;BMP280;56298;49.246;9.410;2023-02-01T04:49:54;99895.13;;;5.01
69186;BMP280;56298;49.246;9.410;2023-02-01T04:52:19;99892.72;;;5.14
69186;BMP280;56298;49.246;9.410;2023-02-01T04:54:45;99888.50;;;5.07
69186;BMP280;56298;49.246;9.410;2023-02-01T04:57:10;99893.13;;;5.07
69186;BMP280;56298;49.246;9.410;2023-02-01T04:59:38;99886.28;;;4.96
69186;BMP280;56298;49.246;9.410;2023-02-01T05:02:03;99889.19;;;4.99
69186;BMP280;56298;49.246;9.410;2023-02-01T05:04:28;99892.72;;;5.00
69186;BMP280;56298;49.246;9.410;2023-02-01T05:06:54;99894.03;;;5.02
69186;BMP280;56298;49.246;9.410;2023-02-01T05:09:19;99887.50;;;5.03
69186;BMP280;56298;49.246;9.410;2023-02-01T05:11:46;99890.00;;;5.14
69186;BMP280;56298;49.246;9.410;2023-02-01T05:14:30;99887.81;;;5.16
69186;BMP280;56298;49.246;9.410;2023-02-01T05:16:55;99880.31;;;5.21
69186;BMP280;56298;49.246;9.410;2023-02-01T05:19:20;99882.06;;;5.17
69186;BMP280;56298;49.246;9.410;2023-02-01T05:21:45;99875.63;;;5.13
69186;BMP280;56298;49.246;9.410;2023-02-01T05:24:11;99886.50;;;5.13
69186;BMP280;56298;49.246;9.410;2023-02-01T05:26:44;99883.56;;;5.24
69186;BMP280;56298;49.246;9.410;2023-02-01T05:29:10;99880.31;;;5.21
69186;BMP280;56298;49.246;9.410;2023-02-01T05:31:36;99879.03;;;5.19
69186;BMP280;56298;49.246;9.410;2023-02-01T05:34:01;99876.13;;;5.15
69186;BMP280;56298;49.246;9.410;2023-02-01T05:36:26;99892.53;;;5.10
69186;BMP280;56298;49.246;9.410;2023-02-01T05:38:52;99892.31;;;5.06
69186;BMP280;56298;49.246;9.410;2023-02-01T05:41:17;99890.00;;;5.14
69186;BMP280;56298;49.246;9.410;2023-02-01T05:43:42;99889.28;;;5.08
69186;BMP280;56298;49.246;9.410;2023-02-01T05:46:07;99904.91;;;5.02
69186;BMP280;56298;49.246;9.410;2023-02-01T05:48:35;99897.44;;;5.08
69186;BMP280;56298;49.246;9.410;2023-02-01T05:51:01;99902.59;;;5.10
69186;BMP280;56298;49.246;9.410;2023-02-01T05:53:26;99904.41;;;5.14
69186;BMP280;56298;49.246;9.410;2023-02-01T05:55:51;99903.69;;;5.09
69186;BMP280;56298;49.246;9.410;2023-02-01T05:58:16;99884.88;;;5.12
69186;BMP280;56298;49.246;9.410;2023-02-01T06:00:42;99881.94;;;5.09
69186;BMP280;56298;49.246;9.410;2023-02-01T06:03:07;99885.88;;;5.16
69186;BMP280;56298;49.246;9.410;2023-02-01T06:05:32;99880.97;;;5.18
69186;BMP280;56298;49.246;9.410;2023-02-01T06:07:57;99867.69;;;5.17
69186;BMP280;56298;49.246;9.410;2023-02-01T06:10:23;99864.66;;;5.18
69186;BMP280;56298;49.246;9.410;2023-02-01T06:12:48;99868.47;;;5.17
69186;BMP280;56298;49.246;9.410;2023-02-01T06:15:15;99866.66;;;5.13
69186;BMP280;56298;49.246;9.410;2023-02-01T06:17:45;99861.50;;;5.11
69186;BMP280;56298;49.246;9.410;2023-02-01T06:20:12;99865.44;;;5.05
69186;BMP280;56298;49.246;9.410;2023-02-01T06:22:38;99856.66;;;5.08
69186;BMP280;56298;49.246;9.410;2023-02-01T06:25:05;99846.41;;;5.05
69186;BMP280;56298;49.246;9.410;2023-02-01T06:27:31;99874.72;;;5.04
69186;BMP280;56298;49.246;9.410;2023-02-01T06:29:56;99871.66;;;5.05
69186;BMP280;56298;49.246;9.410;2023-02-01T06:32:22;99887.09;;;5.10
69186;BMP280;56298;49.246;9.410;2023-02-01T06:34:48;99856.47;;;5.04
69186;BMP280;56298;49.246;9.410;2023-02-01T06:37:13;99873.78;;;5.09
69186;BMP280;56298;49.246;9.410;2023-02-01T06:39:39;99888.41;;;5.13
69186;BMP280;56298;49.246;9.410;2023-02-01T06:42:04;99885.97;;;5.11
69186;BMP280;56298;49.246;9.410;2023-02-01T06:44:29;99897.88;;;5.15
69186;BMP280;56298;49.246;9.410;2023-02-01T06:46:55;99890.81;;;5.14
69186;BMP280;56298;49.246;9.410;2023-02-01T06:49:21;99902.50;;;5.15
69186;BMP280;56298;49.246;9.410;2023-02-01T06:51:46;99906.63;;;5.12
69186;BMP280;56298;49.246;9.410;2023-02-01T06:54:11;99900.09;;;5.13
69186;BMP280;56298;49.246;9.410;2023-02-01T06:56:36;99902.00;;;5.13
69186;BMP280;56298;49.246;9.410;2023-02-01T06:59:07;99927.88;;;5.10
69186;BMP280;56298;49.246;9.410;2023-02-01T07:01:33;99940.06;;;5.13
69186;BMP280;56298;49.246;9.410;2023-02-01T07:03:59;99925.63;;;5.12
69186;BMP280;56298;49.246;9.410;2023-02-01T07:06:25;99919.13;;;5.13
69186;BMP280;56298;49.246;9.410;2023-02-01T07:08:50;99926.25;;;5.09
69186;BMP280;56298;49.246;9.410;2023-02-01T07:11:17;99942.88;;;5.21
69186;BMP280;56298;49.246;9.410;2023-02-01T07:13:43;99942.88;;;5.21
69186;BMP280;56298;49.246;9.410;2023-02-01T07:16:16;99948.22;;;5.27
69186;BMP280;56298;49.246;9.410;2023-02-01T07:18:42;99942.91;;;5.36
69186;BMP280;56298;49.246;9.410;2023-02-01T07:21:07;99941.16;;;5.26
69186;BMP280;56298;49.246;9.410;2023-02-01T07:23:33;99936.84;;;5.25
69186;BMP280;56298;49.246;9.410;2023-02-01T07:26:01;99931.91;;;5.27
69186;BMP280;56298;49.246;9.410;2023-02-01T07:28:29;99945.81;;;5.25
69186;BMP280;56298;49.246;9.410;2023-02-01T07:30:54;99939.56;;;5.25
69186;BMP280;56298;49.246;9.410;2023-02-01T07:33:21;99937.34;;;5.27
69186;BMP280;56298;49.246;9.410;2023-02-01T07:35:48;99942.47;;;5.28
69186;BMP280;56298;49.246;9.410;2023-02-01T07:38:13;99923.66;;;5.18
69186;BMP280;56298;49.246;9.410;2023-02-01T07:40:39;99916.31;;;5.18
69186;BMP280;56298;49.246;9.410;2023-02-01T07:43:04;99902.91;;;5.22
69186;BMP280;56298;49.246;9.410;2023-02-01T07:45:31;99905.81;;;5.26
69186;BMP280;56298;49.246;9.410;2023-02-01T07:47:56;99917.81;;;5.25
69186;BMP280;56298;49.246;9.410;2023-02-01T07:50:22;99914.50;;;5.28
69186;BMP280;56298;49.246;9.410;2023-02-01T07:52:47;99914.50;;;5.28
69186;BMP280;56298;49.246;9.410;2023-02-01T07:55:12;99912.81;;;5.32
69186;BMP280;56298;49.246;9.410;2023-02-01T07:57:38;99916.38;;;5.41
69186;BMP280;56298;49.246;9.410;2023-02-01T08:00:03;99915.94;;;5.53
69186;BMP280;56298;49.246;9.410;2023-02-01T08:02:47;99918.22;;;5.74
69186;BMP280;56298;49.246;9.410;2023-02-01T08:05:12;99924.47;;;5.74
69186;BMP280;56298;49.246;9.410;2023-02-01T08:07:38;99927.34;;;5.92
69186;BMP280;56298;49.246;9.410;2023-02-01T08:10:03;99934.91;;;5.95
69186;BMP280;56298;49.246;9.410;2023-02-01T08:12:30;99943.97;;;6.05
69186;BMP280;56298;49.246;9.410;2023-02-01T08:14:56;99933.03;;;6.19
69186;BMP280;56298;49.246;9.410;2023-02-01T08:17:21;99941.91;;;6.24
69186;BMP280;56298;49.246;9.410;2023-02-01T08:19:46;99935.22;;;6.31
69186;BMP280;56298;49.246;9.410;2023-02-01T08:22:11;99924.72;;;6.38
69186;BMP280;56298;49.246;9.410;2023-02-01T08:24:37;99940.00;;;6.25
69186;BMP280;56298;49.246;9.410;2023-02-01T08:27:05;99939.69;;;6.26
69186;BMP280;56298;49.246;9.410;2023-02-01T08:29:31;99955.22;;;6.26
69186;BMP280;56298;49.246;9.410;2023-02-01T08:31:56;99962.81;;;6.15
69186;BMP280;56298;49.246;9.410;2023-02-01T08:34:21;99954.66;;;6.15
69186;BMP280;56298;49.246;9.410;2023-02-01T08:36:47;99949.78;;;6.26
69186;BMP280;56298;49.246;9.410;2023-02-01T08:39:12;99950.25;;;6.28
69186;BMP280;56298;49.246;9.410;2023-02-01T08:41:37;99952.31;;;6.22
69186;BMP280;56298;49.246;9.410;2023-02-01T08:44:03;99949.97;;;6.29
69186;BMP280;56298;49.246;9.410;2023-02-01T08:46:28;99956.56;;;6.37
69186;BMP280;56298;49.246;9.410;2023-02-01T08:48:54;99955.25;;;6.49
69186;BMP280;56298;49.246;9.410;2023-02-01T08:51:21;99952.75;;;6.84
69186;BMP280;56298;49.246;9.410;2023-02-01T08:53:46;99940.50;;;7.04
69186;BMP280;56298;49.246;9.410;2023-02-01T08:56:14;99957.63;;;6.96
69186;BMP280;56298;49.246;9.410;2023-02-01T08:58:39;99961.88;;;6.79
69186;BMP280;56298;49.246;9.410;2023-02-01T09:01:06;99960.63;;;6.86
69186;BMP280;56298;49.246;9.410;2023-02-01T09:03:32;99959.34;;;6.83
69186;BMP280;56298;49.246;9.410;2023-02-01T09:06:02;99953.69;;;6.79
69186;BMP280;56298;49.246;9.410;2023-02-01T09:08:27;99958.84;;;6.81
69186;BMP280;56298;49.246;9.410;2023-02-01T09:10:52;99957.66;;;6.73
69186;BMP280;56298;49.246;9.410;2023-02-01T09:13:18;99943.06;;;6.69
69186;BMP280;56298;49.246;9.410;2023-02-01T09:15:43;99961.13;;;6.88
69186;BMP280;56298;49.246;9.410;2023-02-01T09:18:08;99969.28;;;6.88
69186;BMP280;56298;49.246;9.410;2023-02-01T09:20:34;99972.69;;;6.93
69186;BMP280;56298;49.246;9.410;2023-02-01T09:22:59;99976.41;;;6.75
69186;BMP280;56298;49.246;9.410;2023-02-01T09:25:25;99980.44;;;6.77
69186;BMP280;56298;49.246;9.410;2023-02-01T09:27:50;99969.66;;;6.95
69186;BMP280;56298;49.246;9.410;2023-02-01T09:30:16;99977.78;;;7.09
69186;BMP280;56298;49.246;9.410;2023-02-01T09:32:41;99981.88;;;6.97
69186;BMP280;56298;49.246;9.410;2023-02-01T09:35:06;99982.50;;;6.94
69186;BMP280;56298;49.246;9.410;2023-02-01T09:37:32;99982.44;;;7.17
69186;BMP280;56298;49.246;9.410;2023-02-01T09:39:57;99974.06;;;7.36
69186;BMP280;56298;49.246;9.410;2023-02-01T09:42:55;99971.53;;;7.49
69186;BMP280;56298;49.246;9.410;2023-02-01T09:45:51;99974.50;;;7.38
69186;BMP280;56298;49.246;9.410;2023-02-01T09:48:24;99974.34;;;7.35
69186;BMP280;56298;49.246;9.410;2023-02-01T09:50:56;99979.00;;;7.03
69186;BMP280;56298;49.246;9.410;2023-02-01T09:53:33;99980.56;;;6.95
69186;BMP280;56298;49.246;9.410;2023-02-01T09:56:06;99982.09;;;6.87
69186;BMP280;56298;49.246;9.410;2023-02-01T09:58:42;99983.47;;;6.98
69186;BMP280;56298;49.246;9.410;2023-02-01T10:01:23;99991.78;;;6.93
69186;BMP280;56298;49.246;9.410;2023-02-01T10:03:50;99990.88;;;6.98
69186;BMP280;56298;49.246;9.410;2023-02-01T10:09:15;99994.75;;;7.06
69186;BMP280;56298;49.246;9.410;2023-02-01T10:26:12;100012.78;;;7.16
69186;BMP280;56298;49.246;9.410;2023-02-01T10:28:43;100012.50;;;7.26
69186;BMP280;56298;49.246;9.410;2023-02-01T10:31:10;100009.94;;;7.30
69186;BMP280;56298;49.246;9.410;2023-02-01T10:38:38;100027.00;;;7.35
69186;BMP280;56298;49.246;9.410;2023-02-01T10:41:11;100021.31;;;7.00
69186;BMP280;56298;49.246;9.410;2023-02-01T10:43:37;100004.34;;;7.03
69186;BMP280;56298;49.246;9.410;2023-02-01T10:46:04;100011.47;;;7.13
69186;BMP280;56298;49.246;9.410;2023-02-01T10:48:31;100012.50;;;7.66
69186;BMP280;56298;49.246;9.410;2023-02-01T10:51:06;100001.19;;;8.00
69186;BMP280;56298;49.246;9.410;2023-02-01T10:53:42;100005.09;;;8.16
69186;BMP280;56298;49.246;9.410;2023-02-01T10:56:10;100001.88;;;8.14
69186;BMP280;56298;49.246;9.410;2023-02-01T10:58:43;100000.25;;;8.13
69186;BMP280;56298;49.246;9.410;2023-02-01T11:01:26;99994.59;;;7.92
69186;BMP280;56298;49.246;9.410;2023-02-01T11:03:55;99980.16;;;7.91
69186;BMP280;56298;49.246;9.410;2023-02-01T11:06:41;99989.75;;;7.80
69186;BMP280;56298;49.246;9.410;2023-02-01T11:16:48;99953.53;;;7.48
69186;BMP280;56298;49.246;9.410;2023-02-01T11:19:16;99952.06;;;7.33
69186;BMP280;56298;49.246;9.410;2023-02-01T11:21:43;99955.38;;;7.21
69186;BMP280;56298;49.246;9.410;2023-02-01T11:24:33;99945.38;;;7.16
69186;BMP280;56298;49.246;9.410;2023-02-01T11:27:03;99941.97;;;7.42
69186;BMP280;56298;49.246;9.410;2023-02-01T11:29:34;99937.75;;;7.36
69186;BMP280;56298;49.246;9.410;2023-02-01T11:32:01;99937.31;;;7.43
69186;BMP280;56298;49.246;9.410;2023-02-01T11:34:41;99945.47;;;7.25
69186;BMP280;56298;49.246;9.410;2023-02-01T11:39:41;99937.31;;;7.02
69186;BMP280;56298;49.246;9.410;2023-02-01T11:42:16;99934.88;;;7.01
69186;BMP280;56298;49.246;9.410;2023-02-01T11:44:46;99937.56;;;6.92
69186;BMP280;56298;49.246;9.410;2023-02-01T11:47:29;99934.72;;;6.97
69186;BMP280;56298;49.246;9.410;2023-02-01T11:50:09;99926.16;;;6.90
69186;BMP280;56298;49.246;9.410;2023-02-01T12:01:30;99924.31;;;7.39
69186;BMP280;56298;49.246;9.410;2023-02-01T12:07:28;99942.03;;;7.69
69186;BMP280;56298;49.246;9.410;2023-02-01T12:10:04;99954.44;;;8.01
69186;BMP280;56298;49.246;9.410;2023-02-01T12:18:38;99957.00;;;7.80
69186;BMP280;56298;49.246;9.410;2023-02-01T12:29:26;99956.63;;;7.55
69186;BMP280;56298;49.246;9.410;2023-02-01T12:32:06;99949.25;;;7.56
69186;BMP280;56298;49.246;9.410;2023-02-01T12:43:18;99916.28;;;7.34
69186;BMP280;56298;49.246;9.410;2023-02-01T12:45:58;99914.47;;;7.30
69186;BMP280;56298;49.246;9.410;2023-02-01T12:48:33;99913.47;;;7.25
69186;BMP280;56298;49.246;9.410;2023-02-01T12:51:03;99912.72;;;7.34
69186;BMP280;56298;49.246;9.410;2023-02-01T12:53:52;99912.25;;;7.41
69186;BMP280;56298;49.246;9.410;2023-02-01T12:56:23;99914.78;;;7.28
69186;BMP280;56298;49.246;9.410;2023-02-01T12:58:55;99912.53;;;7.21
69186;BMP280;56298;49.246;9.410;2023-02-01T13:01:39;99909.63;;;7.27
69186;BMP280;56298;49.246;9.410;2023-02-01T13:04:13;99910.59;;;7.22
69186;BMP280;56298;49.246;9.410;2023-02-01T13:06:45;99905.63;;;7.24
69186;BMP280;56298;49.246;9.410;2023-02-01T13:09:33;99909.13;;;7.16
69186;BMP280;56298;49.246;9.410;2023-02-01T13:12:13;99904.28;;;7.13
69186;BMP280;56298;49.246;9.410;2023-02-01T13:14:52;99901.13;;;7.19
69186;BMP280;56298;49.246;9.410;2023-02-01T13:17:24;99887.31;;;7.16
69186;BMP280;56298;49.246;9.410;2023-02-01T13:20:07;99901.19;;;6.96
69186;BMP280;56298;49.246;9.410;2023-02-01T13:22:41;99906.13;;;6.86
69186;BMP280;56298;49.246;9.410;2023-02-01T13:25:13;99894.31;;;6.99
69186;BMP280;56298;49.246;9.410;2023-02-01T13:27:41;99893.38;;;7.04
69186;BMP280;56298;49.246;9.410;2023-02-01T13:36:12;99903.22;;;6.91
69186;BMP280;56298;49.246;9.410;2023-02-01T13:39:05;99890.91;;;6.93
69186;BMP280;56298;49.246;9.410;2023-02-01T13:44:09;99886.75;;;6.96
69186;BMP280;56298;49.246;9.410;2023-02-01T13:46:45;99883.66;;;6.89
69186;BMP280;56298;49.246;9.410;2023-02-01T13:49:22;99871.81;;;6.93
69186;BMP280;56298;49.246;9.410;2023-02-01T13:51:51;99875.22;;;6.99
69186;BMP280;56298;49.246;9.410;2023-02-01T13:54:35;99874.28;;;7.04
69186;BMP280;56298;49.246;9.410;2023-02-01T13:57:03;99879.41;;;7.05
69186;BMP280;56298;49.246;9.410;2023-02-01T14:02:36;99871.91;;;7.20
69186;BMP280;56298;49.246;9.410;2023-02-01T14:05:01;99865.19;;;7.26
69186;BMP280;56298;49.246;9.410;2023-02-01T14:07:26;99891.50;;;7.22
69186;BMP280;56298;49.246;9.410;2023-02-01T14:09:51;99884.91;;;7.14
69186;BMP280;56298;49.246;9.410;2023-02-01T14:12:47;99893.72;;;7.11
69186;BMP280;56298;49.246;9.410;2023-02-01T14:15:33;99898.19;;;7.07
69186;BMP280;56298;49.246;9.410;2023-02-01T14:17:58;99894.44;;;6.94
69186;BMP280;56298;49.246;9.410;2023-02-01T14:20:40;99901.94;;;6.88
69186;BMP280;56298;49.246;9.410;2023-02-01T14:23:12;99902.16;;;7.01
69186;BMP280;56298;49.246;9.410;2023-02-01T14:25:39;99888.53;;;7.01
69186;BMP280;56298;49.246;9.410;2023-02-01T14:28:22;99887.25;;;6.98
69186;BMP280;56298;49.246;9.410;2023-02-01T14:30:48;99891.25;;;7.01
69186;BMP280;56298;49.246;9.410;2023-02-01T14:33:23;99886.13;;;6.99
69186;BMP280;56298;49.246;9.410;2023-02-01T14:36:10;99889.69;;;7.00
69186;BMP280;56298;49.246;9.410;2023-02-01T14:38:38;99894.06;;;6.87
69186;BMP280;56298;49.246;9.410;2023-02-01T14:41:26;99889.41;;;6.78
69186;BMP280;56298;49.246;9.410;2023-02-01T14:47:06;99888.75;;;6.81
69186;BMP280;56298;49.246;9.410;2023-02-01T14:49:33;99892.78;;;6.84
69186;BMP280;56298;49.246;9.410;2023-02-01T14:52:02;99879.09;;;6.75
69186;BMP280;56298;49.246;9.410;2023-02-01T14:54:30;99881.22;;;6.78
69186;BMP280;56298;49.246;9.410;2023-02-01T14:56:56;99880.63;;;6.90
69186;BMP280;56298;49.246;9.410;2023-02-01T14:59:25;99875.13;;;6.81
69186;BMP280;56298;49.246;9.410;2023-02-01T15:01:53;99891.00;;;6.79
69186;BMP280;56298;49.246;9.410;2023-02-01T15:04:19;99894.00;;;6.69
69186;BMP280;56298;49.246;9.410;2023-02-01T15:06:53;99904.56;;;6.70
69186;BMP280;56298;49.246;9.410;2023-02-01T15:09:43;99897.69;;;6.73
69186;BMP280;56298;49.246;9.410;2023-02-01T15:14:39;99892.88;;;6.70
69186;BMP280;56298;49.246;9.410;2023-02-01T15:17:28;99887.56;;;6.65
69186;BMP280;56298;49.246;9.410;2023-02-01T15:20:26;99867.97;;;6.63
69186;BMP280;56298;49.246;9.410;2023-02-01T15:22:54;99883.69;;;6.57
69186;BMP280;56298;49.246;9.410;2023-02-01T15:25:28;99904.16;;;6.54
69186;BMP280;56298;49.246;9.410;2023-02-01T15:27:54;99911.13;;;6.47
69186;BMP280;56298;49.246;9.410;2023-02-01T15:30:29;99907.75;;;6.41
69186;BMP280;56298;49.246;9.410;2023-02-01T15:35:43;99910.19;;;6.42
69186;BMP280;56298;49.246;9.410;2023-02-01T15:43:36;99906.25;;;6.35
69186;BMP280;56298;49.246;9.410;2023-02-01T15:46:07;99915.72;;;6.37
69186;BMP280;56298;49.246;9.410;2023-02-01T15:48:41;99920.97;;;6.34
69186;BMP280;56298;49.246;9.410;2023-02-01T15:51:13;99912.41;;;6.40
69186;BMP280;56298;49.246;9.410;2023-02-01T15:53:44;99917.97;;;6.35
69186;BMP280;56298;49.246;9.410;2023-02-01T15:56:10;99912.47;;;6.26
69186;BMP280;56298;49.246;9.410;2023-02-01T15:58:35;99911.84;;;6.29
69186;BMP280;56298;49.246;9.410;2023-02-01T16:01:04;99908.63;;;6.27
69186;BMP280;56298;49.246;9.410;2023-02-01T16:03:40;99922.53;;;6.26
69186;BMP280;56298;49.246;9.410;2023-02-01T16:06:28;99910.94;;;6.20
69186;BMP280;56298;49.246;9.410;2023-02-01T16:08:59;99906.56;;;6.10
69186;BMP280;56298;49.246;9.410;2023-02-01T16:11:31;99901.03;;;6.01
69186;BMP280;56298;49.246;9.410;2023-02-01T16:13:58;99903.38;;;5.94
69186;BMP280;56298;49.246;9.410;2023-02-01T16:16:24;99899.63;;;5.90
69186;BMP280;56298;49.246;9.410;2023-02-01T16:18:49;99905.88;;;5.91
69186;BMP280;56298;49.246;9.410;2023-02-01T16:21:15;99905.78;;;5.96
69186;BMP280;56298;49.246;9.410;2023-02-01T16:23:40;99900.03;;;5.97
69186;BMP280;56298;49.246;9.410;2023-02-01T16:26:05;99906.28;;;5.98
69186;BMP280;56298;49.246;9.410;2023-02-01T16:28:32;99914.31;;;6.03
69186;BMP280;56298;49.246;9.410;2023-02-01T16:30:57;99915.28;;;5.98
69186;BMP280;56298;49.246;9.410;2023-02-01T16:33:23;99918.19;;;6.02
69186;BMP280;56298;49.246;9.410;2023-02-01T16:35:49;99916.16;;;5.94
69186;BMP280;56298;49.246;9.410;2023-02-01T16:38:17;99914.94;;;6.00